HBBA/BJM METAR and TAF weather

Enter ICAO airport designator
Station Type Date Time Source
HBBA METAR 2018/01/19 16:00 UTC NOAA

HBBA 191600Z 18012KT 8000 FEW025 OVC100 26/21 Q1010 NOSIG


Station Type Date Time Source
HBBA Decoded METAR 2018/01/19 16:00 UTC NOAA

Bujumbura, Burundi (HBBA) 03-19S 029-19E 783M
Jan 19, 2018 - 11:00 AM EST / 2018.01.19 1600 UTC
Wind: from the S (180 degrees) at 14 MPH (12 KT):0
Visibility: 4 mile(s):0
Sky conditions: overcast
Temperature: 78 F (26 C)
Dew Point: 69 F (21 C)
Relative Humidity: 73%
Pressure (altimeter): 29.83 in. Hg (1010 hPa)
ob: HBBA 191600Z 18012KT 8000 FEW025 OVC100 26/21 Q1010 NOSIG
cycle: 16

Station Type Date Time Source
HBBA TAF 2018/01/19 12:55 UTC NOAA

TAF HBBA 191100Z 1912/2018 18010G15KT 9999 FEW030 FEW030CB BKN100 PROB40
TEMPO1913/1916 7000 SHRA OR TSRA
BECMG1917/1920 VRB02KT 9999 BKN080
BECMG2002/2004 36004KT CAVOK
BECMG2007/2009 18010G15KT 9999 FEW030 BKN100


Example: see airport list